Time;durP1;ratioP1;P1;durP2;ratioP2;P2;SDS_P1;SDS_P2;PMS_P1;PMS_P2;Temp;Humidity;BMP_temperature;BMP_pressure;BME280_temperature;BME280_humidity;BME280_pressure;Samples;Min_cycle;Max_cycle;Signal;HPM_P1;HPM_P2
2021/12/31 00:01:05;;;;;;;8.23;2.70;;;13.20;99.90;;;;;;5017430;28;20635;-79
2021/12/31 00:03:30;;;;;;;6.27;2.27;;;13.20;99.90;;;;;;5018831;28;20232;-78
2021/12/31 00:05:56;;;;;;;7.07;2.50;;;13.20;99.90;;;;;;5018520;28;20177;-78
2021/12/31 00:08:21;;;;;;;5.57;2.10;;;13.30;99.90;;;;;;5017282;28;20701;-79
2021/12/31 00:10:47;;;;;;;7.67;2.23;;;13.20;99.90;;;;;;5016815;28;20181;-79
2021/12/31 00:13:12;;;;;;;6.20;2.30;;;13.20;99.90;;;;;;5016057;28;20213;-79
2021/12/31 00:15:38;;;;;;;5.97;2.10;;;13.20;99.90;;;;;;5016391;28;20173;-79
2021/12/31 00:18:04;;;;;;;6.27;2.17;;;13.20;99.90;;;;;;5017719;28;20263;-78
2021/12/31 00:20:29;;;;;;;10.03;2.30;;;13.20;99.90;;;;;;5016048;28;20184;-78
2021/12/31 00:25:21;;;;;;;6.83;2.40;;;13.20;99.90;;;;;;5017648;28;20275;-78
2021/12/31 00:27:47;;;;;;;6.13;1.90;;;13.20;99.90;;;;;;5017061;28;20667;-78
2021/12/31 00:30:14;;;;;;;7.73;2.00;;;13.20;99.90;;;;;;5017770;28;20177;-79
2021/12/31 00:32:39;;;;;;;5.37;2.43;;;13.20;99.90;;;;;;5018082;28;20200;-79
2021/12/31 00:35:06;;;;;;;7.73;2.73;;;13.20;99.90;;;;;;5019382;28;20208;-79
2021/12/31 00:37:34;;;;;;;4.43;2.23;;;13.20;99.90;;;;;;5017733;28;20173;-79
2021/12/31 00:40:01;;;;;;;4.00;1.77;;;13.20;99.90;;;;;;5017794;28;20209;-79
2021/12/31 00:42:27;;;;;;;6.30;1.67;;;13.20;99.90;;;;;;5017782;28;20196;-79
2021/12/31 00:44:52;;;;;;;4.63;1.87;;;13.20;99.90;;;;;;5016665;28;20596;-79
2021/12/31 00:47:18;;;;;;;6.57;2.00;;;13.20;99.90;;;;;;5017780;28;20192;-79
2021/12/31 00:49:44;;;;;;;7.13;2.30;;;13.20;99.90;;;;;;5018286;28;20185;-78
2021/12/31 00:52:10;;;;;;;5.10;2.20;;;13.20;99.90;;;;;;5016208;28;20188;-79
2021/12/31 00:54:35;;;;;;;4.50;2.17;;;13.20;99.90;;;;;;5016215;28;20239;-79
2021/12/31 00:57:03;;;;;;;5.23;2.00;;;13.20;99.90;;;;;;5016394;28;20545;-79
2021/12/31 00:59:33;;;;;;;6.33;2.43;;;13.30;99.90;;;;;;5017775;28;20173;-79
2021/12/31 01:01:59;;;;;;;6.97;2.17;;;13.30;99.90;;;;;;5017593;28;20609;-79
2021/12/31 01:04:25;;;;;;;3.87;1.87;;;13.30;99.90;;;;;;5017913;28;20197;-79
2021/12/31 01:06:51;;;;;;;4.77;1.90;;;13.30;99.90;;;;;;5017955;28;20323;-79
2021/12/31 01:09:17;;;;;;;5.60;1.77;;;13.50;99.90;;;;;;5017840;28;20646;-79
2021/12/31 01:11:46;;;;;;;6.80;2.00;;;13.50;99.90;;;;;;5015937;28;20184;-79
2021/12/31 01:17:15;;;;;;;3.53;1.33;;;13.60;99.90;;;;;;5005659;28;20274;-79
2021/12/31 01:19:46;;;;;;;4.83;2.00;;;13.40;99.90;;;;;;5015646;28;20188;-79
2021/12/31 01:22:28;;;;;;;6.60;2.13;;;13.30;99.90;;;;;;5016156;28;20180;-79
2021/12/31 01:24:53;;;;;;;8.13;2.20;;;13.40;99.90;;;;;;5017114;28;20228;-79
2021/12/31 01:27:19;;;;;;;3.37;1.60;;;13.40;99.90;;;;;;5017623;28;20226;-78
2021/12/31 01:29:45;;;;;;;5.33;1.57;;;13.30;99.90;;;;;;5015817;28;20180;-79
2021/12/31 01:32:10;;;;;;;7.03;1.60;;;13.30;99.90;;;;;;5015905;28;20177;-79
2021/12/31 01:34:37;;;;;;;6.87;1.77;;;13.30;99.90;;;;;;5015510;28;20204;-79
2021/12/31 01:37:03;;;;;;;3.90;1.50;;;13.20;99.90;;;;;;5017519;28;20188;-79
2021/12/31 01:39:29;;;;;;;7.27;1.97;;;13.20;99.90;;;;;;5023080;28;20547;-79
2021/12/31 01:41:58;;;;;;;5.37;1.73;;;13.20;99.90;;;;;;5019281;28;20195;-79
2021/12/31 01:44:28;;;;;;;4.63;1.70;;;13.20;99.90;;;;;;5017673;28;20292;-79
2021/12/31 01:46:55;;;;;;;3.63;1.43;;;13.20;99.90;;;;;;5016785;28;20177;-79
2021/12/31 01:49:22;;;;;;;4.67;1.77;;;13.20;99.90;;;;;;5017857;28;20173;-79
2021/12/31 01:51:48;;;;;;;3.83;1.40;;;13.20;99.90;;;;;;5020083;28;20188;-79
2021/12/31 01:54:14;;;;;;;3.47;1.30;;;13.30;99.90;;;;;;5020871;28;20209;-79
2021/12/31 01:56:39;;;;;;;5.93;1.50;;;13.30;99.90;;;;;;5021754;28;20184;-79
2021/12/31 01:59:07;;;;;;;5.53;1.60;;;13.30;99.90;;;;;;5021618;28;20181;-79
2021/12/31 02:01:34;;;;;;;2.90;1.37;;;13.30;99.90;;;;;;5021520;28;20169;-79
2021/12/31 02:04:00;;;;;;;4.53;1.57;;;13.30;99.90;;;;;;5020398;28;20286;-79
2021/12/31 02:06:26;;;;;;;3.77;1.73;;;13.30;99.90;;;;;;5020934;28;20181;-79
2021/12/31 02:08:51;;;;;;;5.40;1.43;;;13.30;99.90;;;;;;5021321;28;20177;-79
2021/12/31 02:11:18;;;;;;;6.17;1.80;;;13.30;99.90;;;;;;5021426;28;20191;-79
2021/12/31 02:13:43;;;;;;;8.27;2.13;;;13.20;99.90;;;;;;5021647;28;20586;-79
2021/12/31 02:16:09;;;;;;;4.07;1.60;;;13.30;99.90;;;;;;5021900;28;20173;-79
2021/12/31 02:18:35;;;;;;;4.50;1.70;;;13.40;99.90;;;;;;5022595;28;20203;-79
2021/12/31 02:21:03;;;;;;;5.10;1.70;;;13.20;99.90;;;;;;5024675;28;20168;-79
2021/12/31 02:23:37;;;;;;;8.90;1.50;;;13.20;99.90;;;;;;5020388;28;20169;-79
2021/12/31 02:26:03;;;;;;;5.03;2.07;;;13.20;99.90;;;;;;5020470;28;20184;-79
2021/12/31 02:28:28;;;;;;;4.93;1.93;;;13.20;99.90;;;;;;5020868;28;20175;-79
2021/12/31 02:31:00;;;;;;;7.80;2.00;;;13.20;99.90;;;;;;5021371;28;20177;-79
2021/12/31 02:33:26;;;;;;;5.07;1.97;;;13.10;99.90;;;;;;4999809;28;20281;-78
2021/12/31 02:35:52;;;;;;;5.07;1.73;;;13.20;99.90;;;;;;5000622;28;20197;-77
2021/12/31 02:38:18;;;;;;;3.80;1.73;;;13.10;99.90;;;;;;5001125;28;20173;-79
2021/12/31 02:40:43;;;;;;;5.50;1.87;;;13.10;99.90;;;;;;4999147;28;20174;-79
2021/12/31 02:43:09;;;;;;;4.67;1.60;;;13.10;99.90;;;;;;5000612;28;20173;-79
2021/12/31 02:45:37;;;;;;;4.27;1.53;;;13.10;99.90;;;;;;4999207;28;20182;-79
2021/12/31 02:48:05;;;;;;;4.03;1.60;;;13.10;99.90;;;;;;5002157;28;20170;-79
2021/12/31 02:50:33;;;;;;;5.63;1.80;;;13.10;99.90;;;;;;5018953;28;20267;-79
2021/12/31 02:53:04;;;;;;;3.67;2.07;;;13.10;99.90;;;;;;5021109;28;20217;-79
2021/12/31 02:55:30;;;;;;;4.17;1.63;;;13.10;99.90;;;;;;5020535;28;20691;-79
2021/12/31 02:57:57;;;;;;;4.53;1.50;;;13.10;99.90;;;;;;5020348;28;20181;-79
2021/12/31 03:00:23;;;;;;;6.30;1.80;;;13.00;99.90;;;;;;5020640;28;20173;-79
2021/12/31 03:02:49;;;;;;;2.67;1.63;;;13.10;99.90;;;;;;5018694;28;20208;-79
2021/12/31 03:05:15;;;;;;;5.43;1.70;;;13.10;99.90;;;;;;5019808;28;20615;-79
2021/12/31 03:07:45;;;;;;;6.13;1.60;;;13.10;99.90;;;;;;5020141;28;20193;-79
2021/12/31 03:10:11;;;;;;;3.87;1.30;;;13.00;99.90;;;;;;5020180;28;20176;-79
2021/12/31 03:12:39;;;;;;;5.17;1.70;;;13.00;99.90;;;;;;5020663;28;20201;-79
2021/12/31 03:15:05;;;;;;;2.77;1.40;;;13.10;99.90;;;;;;5018220;28;20230;-78
2021/12/31 03:17:32;;;;;;;4.20;1.67;;;13.00;99.90;;;;;;5019884;28;20173;-79
2021/12/31 03:20:09;;;;;;;2.90;1.53;;;13.00;99.90;;;;;;5019590;28;20180;-79
2021/12/31 03:22:35;;;;;;;3.70;1.50;;;13.00;99.90;;;;;;5019987;28;20180;-79
2021/12/31 03:25:01;;;;;;;4.63;1.60;;;13.00;99.90;;;;;;5019858;28;20208;-78
2021/12/31 03:27:27;;;;;;;5.10;1.50;;;13.00;99.90;;;;;;5020554;28;20173;-79
2021/12/31 03:29:52;;;;;;;3.67;1.20;;;13.00;99.90;;;;;;5019768;28;20177;-79
2021/12/31 03:32:18;;;;;;;6.10;1.67;;;13.00;99.90;;;;;;5020143;28;20197;-79
2021/12/31 03:34:43;;;;;;;5.57;1.60;;;13.00;99.90;;;;;;5019600;28;20275;-79
2021/12/31 03:37:09;;;;;;;4.60;1.50;;;13.00;99.90;;;;;;5019123;28;20239;-79
2021/12/31 03:39:34;;;;;;;4.30;1.70;;;13.00;99.90;;;;;;5019886;28;20264;-79
2021/12/31 03:42:00;;;;;;;2.43;1.23;;;13.00;99.90;;;;;;5018259;28;20185;-79
2021/12/31 03:44:25;;;;;;;3.37;1.20;;;13.00;99.90;;;;;;5018185;28;20260;-79
2021/12/31 03:46:51;;;;;;;3.57;1.50;;;13.00;99.90;;;;;;5019864;28;20264;-79
2021/12/31 03:49:16;;;;;;;5.20;1.53;;;13.00;99.90;;;;;;5018699;28;20176;-79
2021/12/31 03:51:42;;;;;;;5.20;1.47;;;13.00;99.90;;;;;;5019750;28;20173;-79
2021/12/31 03:54:07;;;;;;;8.80;1.63;;;13.00;99.90;;;;;;5019999;28;20213;-79
2021/12/31 03:56:34;;;;;;;3.30;1.40;;;13.10;99.90;;;;;;5020918;28;20256;-79
2021/12/31 03:58:59;;;;;;;4.20;1.50;;;13.10;99.90;;;;;;5020331;28;20240;-79
2021/12/31 04:01:26;;;;;;;3.73;1.27;;;13.00;99.90;;;;;;5020988;28;20279;-79
2021/12/31 04:03:53;;;;;;;6.67;1.47;;;13.10;99.90;;;;;;5032578;28;20192;-79
2021/12/31 04:06:18;;;;;;;5.37;1.53;;;13.00;99.90;;;;;;5034441;28;20177;-78
2021/12/31 04:08:44;;;;;;;3.90;1.60;;;13.00;99.90;;;;;;5035449;28;20241;-78
2021/12/31 04:11:13;;;;;;;3.23;1.50;;;13.10;99.90;;;;;;5035672;28;20191;-79
2021/12/31 04:16:03;;;;;;;5.73;1.60;;;13.00;99.90;;;;;;5017000;23;20233;-94
2021/12/31 04:18:29;;;;;;;3.47;1.33;;;13.30;99.90;;;;;;5031336;28;20269;-93
2021/12/31 04:20:57;;;;;;;5.20;1.60;;;13.20;99.90;;;;;;5033395;28;20174;-93
2021/12/31 04:23:30;;;;;;;2.60;1.30;;;13.60;99.90;;;;;;5033616;28;20674;-94
2021/12/31 04:25:57;;;;;;;4.77;1.90;;;13.00;99.90;;;;;;5032624;28;20180;-94
2021/12/31 04:28:24;;;;;;;6.33;1.40;;;13.00;99.90;;;;;;5032432;23;20229;-82
2021/12/31 04:30:49;;;;;;;3.13;1.27;;;13.00;99.90;;;;;;5021605;28;20177;-80
2021/12/31 04:33:15;;;;;;;2.07;0.97;;;13.00;99.90;;;;;;5020270;28;20208;-78
2021/12/31 04:35:40;;;;;;;3.40;1.23;;;13.00;99.90;;;;;;5020330;28;20259;-78
2021/12/31 04:38:06;;;;;;;3.03;1.27;;;13.00;99.90;;;;;;5019934;28;20180;-78
2021/12/31 04:40:32;;;;;;;3.53;1.53;;;13.00;99.90;;;;;;5019698;28;20177;-78
2021/12/31 04:42:57;;;;;;;4.80;1.83;;;13.00;99.90;;;;;;5020578;28;20200;-79
2021/12/31 04:45:24;;;;;;;4.23;1.40;;;13.00;99.90;;;;;;5018677;28;20259;-78
2021/12/31 04:47:50;;;;;;;3.37;1.37;;;13.00;99.90;;;;;;5016216;28;20182;-78
2021/12/31 04:50:16;;;;;;;4.27;1.50;;;13.00;99.90;;;;;;5009874;28;20705;-78
2021/12/31 04:52:43;;;;;;;3.70;1.30;;;12.90;99.90;;;;;;5014891;28;20200;-77
2021/12/31 04:55:10;;;;;;;3.10;1.17;;;13.00;99.90;;;;;;5013455;28;20197;-77
2021/12/31 04:57:35;;;;;;;3.53;1.67;;;12.90;99.90;;;;;;5014813;28;20224;-78
2021/12/31 05:00:01;;;;;;;8.93;1.70;;;12.90;99.90;;;;;;5015306;28;20650;-77
2021/12/31 05:02:26;;;;;;;4.93;1.60;;;12.90;99.90;;;;;;5013127;28;20177;-78
2021/12/31 05:04:52;;;;;;;4.60;1.23;;;12.90;99.90;;;;;;5013698;28;20279;-78
2021/12/31 05:07:17;;;;;;;5.27;1.27;;;12.90;99.90;;;;;;5015125;28;20251;-77
2021/12/31 05:09:43;;;;;;;4.20;1.33;;;12.90;99.90;;;;;;5013919;28;20255;-77
2021/12/31 05:12:14;;;;;;;3.50;1.30;;;12.90;99.90;;;;;;5015794;28;20236;-78
2021/12/31 05:14:40;;;;;;;2.60;1.20;;;12.90;99.90;;;;;;5016098;28;20188;-78
2021/12/31 05:17:06;;;;;;;4.43;1.50;;;12.90;99.90;;;;;;5016069;28;20169;-77
2021/12/31 05:19:31;;;;;;;4.77;1.33;;;12.90;99.90;;;;;;5014066;28;20200;-77
2021/12/31 05:21:57;;;;;;;7.77;1.30;;;12.90;99.90;;;;;;5014039;28;20173;-77
2021/12/31 05:24:22;;;;;;;4.20;1.30;;;12.90;99.90;;;;;;5014094;28;20208;-78
2021/12/31 05:26:48;;;;;;;5.93;1.60;;;12.90;99.90;;;;;;5016465;28;20236;-77
2021/12/31 05:29:13;;;;;;;2.80;1.27;;;12.90;99.90;;;;;;5019153;28;20165;-77
2021/12/31 05:31:39;;;;;;;5.30;1.20;;;12.90;99.90;;;;;;5018711;28;20180;-78
2021/12/31 05:34:04;;;;;;;4.43;1.50;;;12.90;99.90;;;;;;5015241;28;20710;-77
2021/12/31 05:36:30;;;;;;;2.57;1.30;;;12.90;99.90;;;;;;5015165;28;20704;-78
2021/12/31 05:38:55;;;;;;;5.57;1.90;;;12.90;99.90;;;;;;5015987;28;20176;-78
2021/12/31 05:41:21;;;;;;;3.17;1.40;;;12.90;99.90;;;;;;5015293;28;20205;-78
2021/12/31 05:43:47;;;;;;;2.07;1.27;;;12.90;99.90;;;;;;5015598;28;20187;-78
2021/12/31 05:46:12;;;;;;;4.53;1.90;;;12.90;99.90;;;;;;5016125;28;20590;-77
2021/12/31 05:48:38;;;;;;;3.20;1.57;;;12.90;99.90;;;;;;5016217;28;20177;-78
2021/12/31 05:51:03;;;;;;;5.60;1.90;;;12.80;99.90;;;;;;5015351;28;20180;-78
2021/12/31 05:53:29;;;;;;;5.17;1.90;;;12.90;99.90;;;;;;5015701;28;20246;-78
2021/12/31 05:55:55;;;;;;;4.87;1.80;;;12.90;99.90;;;;;;5014357;28;20193;-77
2021/12/31 05:58:21;;;;;;;4.53;1.60;;;12.80;99.90;;;;;;5013861;28;20255;-78
2021/12/31 06:00:46;;;;;;;6.70;2.00;;;12.90;99.90;;;;;;5014893;28;20180;-78
2021/12/31 06:03:12;;;;;;;4.23;1.57;;;12.80;99.90;;;;;;5015247;28;20173;-77
2021/12/31 06:05:37;;;;;;;3.60;1.47;;;12.80;99.90;;;;;;5005020;28;20248;-78
2021/12/31 06:08:03;;;;;;;4.03;1.63;;;12.90;99.90;;;;;;5004035;28;20173;-77
2021/12/31 06:10:31;;;;;;;3.50;1.60;;;12.90;99.90;;;;;;5003496;28;20260;-79
2021/12/31 06:12:58;;;;;;;2.80;1.23;;;12.90;99.90;;;;;;5036425;28;20228;-78
2021/12/31 06:15:26;;;;;;;3.63;1.60;;;12.90;99.90;;;;;;5007270;28;20259;-79
2021/12/31 06:17:51;;;;;;;3.50;1.50;;;12.90;99.90;;;;;;5003624;28;20178;-79
2021/12/31 06:20:17;;;;;;;5.00;1.63;;;13.00;99.90;;;;;;5003498;28;20640;-78
2021/12/31 06:22:42;;;;;;;3.27;1.30;;;13.00;99.90;;;;;;5004420;28;20256;-78
2021/12/31 06:25:08;;;;;;;3.47;1.40;;;13.00;99.90;;;;;;5002583;28;20694;-78
2021/12/31 06:27:34;;;;;;;3.63;1.70;;;13.00;99.90;;;;;;5033803;28;20224;-77
2021/12/31 06:30:00;;;;;;;7.30;1.70;;;13.00;99.90;;;;;;5010698;28;20265;-77
2021/12/31 06:32:25;;;;;;;2.50;1.30;;;13.00;99.90;;;;;;5010026;28;20251;-77
2021/12/31 06:34:51;;;;;;;2.77;1.30;;;13.00;99.90;;;;;;5013979;28;20625;-77
2021/12/31 06:37:16;;;;;;;5.30;1.57;;;13.00;99.90;;;;;;5014388;28;20192;-78
2021/12/31 06:39:44;;;;;;;6.07;1.97;;;12.90;99.90;;;;;;5016573;28;20177;-77
2021/12/31 06:42:09;;;;;;;4.47;1.70;;;12.90;99.90;;;;;;5017267;28;20165;-77
2021/12/31 06:44:36;;;;;;;5.00;1.70;;;12.90;99.90;;;;;;5017099;28;20193;-77
2021/12/31 06:47:03;;;;;;;2.33;1.67;;;12.90;99.90;;;;;;5049118;28;20177;-77
2021/12/31 06:49:29;;;;;;;4.07;1.20;;;12.90;99.90;;;;;;5038344;28;20559;-78
2021/12/31 06:51:54;;;;;;;2.87;1.30;;;12.90;99.90;;;;;;5016915;28;20177;-77
2021/12/31 06:54:20;;;;;;;3.90;1.40;;;12.90;99.90;;;;;;5016532;28;20624;-77
2021/12/31 06:56:45;;;;;;;4.17;1.43;;;12.80;99.90;;;;;;5015261;28;20216;-77
2021/12/31 06:59:11;;;;;;;4.00;1.60;;;12.80;99.90;;;;;;5015150;28;20231;-77
2021/12/31 07:01:37;;;;;;;3.10;1.30;;;12.70;99.90;;;;;;5016894;28;20181;-77
2021/12/31 07:04:02;;;;;;;2.97;1.33;;;12.70;99.90;;;;;;5016103;28;20263;-77
2021/12/31 07:06:28;;;;;;;3.20;1.20;;;12.60;99.90;;;;;;5014970;28;20185;-77
2021/12/31 07:08:53;;;;;;;3.07;1.30;;;12.60;99.90;;;;;;5015422;28;20177;-78
2021/12/31 07:11:22;;;;;;;3.37;1.43;;;12.60;99.90;;;;;;5016088;28;20603;-77
2021/12/31 07:13:48;;;;;;;4.40;1.70;;;12.60;99.90;;;;;;5014621;28;20205;-77
2021/12/31 07:16:14;;;;;;;3.60;1.30;;;12.60;99.90;;;;;;5014494;28;20224;-77
2021/12/31 07:18:39;;;;;;;1.90;0.97;;;12.60;99.90;;;;;;5014301;28;20717;-77
2021/12/31 07:21:05;;;;;;;2.43;1.30;;;12.50;99.90;;;;;;5015705;28;20538;-77
2021/12/31 07:23:31;;;;;;;2.27;1.40;;;12.50;99.90;;;;;;5018080;28;20173;-77
2021/12/31 07:25:57;;;;;;;3.67;1.33;;;12.40;99.90;;;;;;5019529;28;20227;-77
2021/12/31 07:28:22;;;;;;;3.27;1.33;;;12.50;99.90;;;;;;5018571;28;20369;-77
2021/12/31 07:30:48;;;;;;;3.40;1.63;;;12.40;99.90;;;;;;5015513;28;20208;-78
2021/12/31 07:33:22;;;;;;;4.40;1.40;;;12.40;99.90;;;;;;5016575;28;20236;-77
2021/12/31 07:35:49;;;;;;;5.10;1.50;;;12.40;99.90;;;;;;5015315;28;20288;-77
2021/12/31 07:38:31;;;;;;;3.40;1.30;;;12.40;99.90;;;;;;5015753;28;20196;-77
2021/12/31 07:40:57;;;;;;;4.17;1.43;;;12.40;99.90;;;;;;5017083;28;20150;-78
2021/12/31 07:43:23;;;;;;;5.07;1.70;;;12.40;99.90;;;;;;5015388;28;20655;-77
2021/12/31 07:45:50;;;;;;;3.97;1.47;;;12.30;99.90;;;;;;5017288;28;20535;-77
2021/12/31 07:48:16;;;;;;;2.60;1.30;;;12.30;99.90;;;;;;5017347;28;20169;-78
2021/12/31 07:50:41;;;;;;;3.03;1.33;;;12.30;99.90;;;;;;5017434;28;20639;-78
2021/12/31 07:53:07;;;;;;;3.27;1.40;;;12.30;99.90;;;;;;5017619;28;20203;-78
2021/12/31 07:55:33;;;;;;;1.43;1.20;;;12.20;99.90;;;;;;5019166;28;20565;-78
2021/12/31 07:57:59;;;;;;;2.20;1.63;;;12.20;99.90;;;;;;5019827;28;20180;-79
2021/12/31 08:00:25;;;;;;;7.70;1.60;;;12.20;99.90;;;;;;5021902;28;20173;-80
2021/12/31 08:02:50;;;;;;;2.87;1.70;;;12.20;99.90;;;;;;5020739;28;20238;-80
2021/12/31 08:05:16;;;;;;;3.10;1.53;;;12.10;99.90;;;;;;5021307;28;20563;-80
2021/12/31 08:07:41;;;;;;;3.53;1.70;;;12.10;99.90;;;;;;5020867;28;20204;-80
2021/12/31 08:10:08;;;;;;;2.57;1.73;;;12.10;99.90;;;;;;5018431;28;20188;-79
2021/12/31 08:12:35;;;;;;;4.93;2.03;;;12.00;99.90;;;;;;5015945;28;20242;-78
2021/12/31 08:15:01;;;;;;;4.77;2.10;;;12.10;99.90;;;;;;5013713;28;20377;-78
2021/12/31 08:17:27;;;;;;;3.93;1.90;;;12.10;99.90;;;;;;5015159;28;20263;-78
2021/12/31 08:19:52;;;;;;;6.70;2.40;;;12.00;99.90;;;;;;5013805;28;20643;-78
2021/12/31 08:22:18;;;;;;;3.47;2.10;;;12.00;99.90;;;;;;5013588;28;20204;-78
2021/12/31 08:24:43;;;;;;;4.87;1.90;;;12.00;99.90;;;;;;5016169;28;20189;-79
2021/12/31 08:27:09;;;;;;;3.83;1.80;;;11.90;99.90;;;;;;5022733;28;20655;-80
2021/12/31 08:29:35;;;;;;;4.40;1.90;;;11.90;99.90;;;;;;5028766;28;20165;-79
2021/12/31 08:32:00;;;;;;;2.47;1.90;;;11.90;99.90;;;;;;5025616;28;20176;-80
2021/12/31 08:34:26;;;;;;;3.50;1.80;;;12.00;99.90;;;;;;5021675;28;20287;-80
2021/12/31 08:36:51;;;;;;;2.83;1.67;;;11.90;99.90;;;;;;5018244;28;20237;-80
2021/12/31 08:39:17;;;;;;;2.57;1.90;;;12.00;99.90;;;;;;5019033;28;20173;-80
2021/12/31 08:41:42;;;;;;;6.97;2.10;;;11.90;99.90;;;;;;5017390;28;20180;-79
2021/12/31 08:44:08;;;;;;;3.87;2.07;;;11.90;99.90;;;;;;5015514;28;20189;-77
2021/12/31 08:46:35;;;;;;;3.97;1.93;;;11.90;99.90;;;;;;5013939;28;20227;-77
2021/12/31 08:49:02;;;;;;;4.10;1.80;;;11.90;99.90;;;;;;5014503;28;20251;-79
2021/12/31 08:51:28;;;;;;;3.57;1.80;;;11.90;99.90;;;;;;5014933;28;20181;-77
2021/12/31 08:53:55;;;;;;;2.93;1.70;;;11.90;99.90;;;;;;5017713;28;20193;-79
2021/12/31 08:56:21;;;;;;;3.60;1.70;;;11.90;99.90;;;;;;5016560;28;20204;-80
2021/12/31 08:58:46;;;;;;;3.43;2.00;;;12.00;99.90;;;;;;5017552;28;20168;-79
2021/12/31 09:01:13;;;;;;;4.47;1.93;;;12.00;99.90;;;;;;5016263;28;20177;-78
2021/12/31 09:03:39;;;;;;;3.43;1.97;;;11.90;99.90;;;;;;5016691;28;20549;-80
2021/12/31 09:06:05;;;;;;;4.13;1.67;;;12.00;99.90;;;;;;5016052;28;20200;-78
2021/12/31 09:08:31;;;;;;;3.97;1.60;;;11.90;99.90;;;;;;5014183;28;20185;-76
2021/12/31 09:10:57;;;;;;;3.63;1.87;;;12.00;99.90;;;;;;5013857;28;20658;-76
2021/12/31 09:13:23;;;;;;;3.93;1.80;;;12.00;99.90;;;;;;5014168;28;20197;-77
2021/12/31 09:15:48;;;;;;;4.30;2.00;;;11.90;99.90;;;;;;5013342;28;20534;-76
2021/12/31 09:18:14;;;;;;;2.40;1.63;;;12.00;99.90;;;;;;5013682;28;20169;-78
2021/12/31 09:20:40;;;;;;;5.23;2.27;;;12.00;99.90;;;;;;5013454;28;20717;-77
2021/12/31 09:23:06;;;;;;;3.27;2.10;;;12.00;99.90;;;;;;5012397;28;20223;-77
2021/12/31 09:25:32;;;;;;;3.73;2.20;;;12.00;99.90;;;;;;5012620;28;20197;-77
2021/12/31 09:27:57;;;;;;;6.63;2.10;;;12.10;99.90;;;;;;5013703;28;20695;-77
2021/12/31 09:30:23;;;;;;;4.67;2.07;;;12.00;99.90;;;;;;5012936;28;20188;-77
2021/12/31 09:32:48;;;;;;;3.67;1.90;;;12.10;99.90;;;;;;5014200;28;20200;-77
2021/12/31 09:35:14;;;;;;;3.27;2.10;;;12.10;99.90;;;;;;5014035;28;20281;-77
2021/12/31 09:37:40;;;;;;;6.40;2.13;;;12.10;99.90;;;;;;5014008;28;20180;-77
2021/12/31 09:40:07;;;;;;;5.50;2.30;;;12.10;99.90;;;;;;5014703;28;20173;-77
2021/12/31 09:42:32;;;;;;;6.40;2.00;;;12.10;99.90;;;;;;5015175;28;20185;-77
2021/12/31 09:44:58;;;;;;;4.53;2.00;;;12.10;99.90;;;;;;5013731;28;20200;-78
2021/12/31 09:47:23;;;;;;;2.93;1.90;;;12.20;99.90;;;;;;5015340;28;20208;-77
2021/12/31 09:49:49;;;;;;;3.37;2.03;;;12.20;99.90;;;;;;5013459;28;20179;-77
2021/12/31 09:52:16;;;;;;;5.63;2.30;;;12.10;99.90;;;;;;5014673;28;20208;-77
2021/12/31 09:54:44;;;;;;;3.60;2.03;;;12.20;99.90;;;;;;5012418;28;20193;-78
2021/12/31 09:57:18;;;;;;;3.80;2.30;;;12.20;99.90;;;;;;5013845;28;20230;-77
2021/12/31 09:59:45;;;;;;;3.23;1.80;;;12.20;99.90;;;;;;5013785;28;20177;-78
2021/12/31 10:02:11;;;;;;;3.77;2.27;;;12.20;99.90;;;;;;5014756;28;20246;-78
2021/12/31 10:04:57;;;;;;;5.70;2.27;;;12.20;99.90;;;;;;5013283;28;20691;-77
2021/12/31 10:07:24;;;;;;;8.97;2.30;;;12.20;99.90;;;;;;5013035;28;20173;-77
2021/12/31 10:10:11;;;;;;;5.47;2.67;;;12.20;99.90;;;;;;5015042;28;20177;-77
2021/12/31 10:12:53;;;;;;;3.03;2.10;;;12.20;99.90;;;;;;5015123;28;20224;-78
2021/12/31 10:15:21;;;;;;;4.77;2.00;;;12.20;99.90;;;;;;5017895;28;20201;-77
2021/12/31 10:17:47;;;;;;;3.07;1.80;;;12.30;99.90;;;;;;5017486;28;20185;-78
2021/12/31 10:20:14;;;;;;;4.63;2.17;;;12.30;99.90;;;;;;5016737;28;20272;-77
2021/12/31 10:22:40;;;;;;;2.93;1.87;;;12.30;99.90;;;;;;5015820;28;20656;-77
2021/12/31 10:25:17;;;;;;;3.70;1.97;;;12.30;99.90;;;;;;5017181;28;20220;-77
2021/12/31 10:27:43;;;;;;;3.87;2.13;;;12.30;99.90;;;;;;5017587;28;20201;-77
2021/12/31 10:30:09;;;;;;;3.10;1.93;;;12.40;99.90;;;;;;5017548;28;20181;-76
2021/12/31 10:32:40;;;;;;;4.17;2.27;;;12.40;99.90;;;;;;5016649;28;20200;-76
2021/12/31 10:35:20;;;;;;;3.83;2.03;;;12.40;99.90;;;;;;5015650;28;20247;-78
2021/12/31 10:37:58;;;;;;;5.43;2.00;;;12.50;99.90;;;;;;5017164;28;20516;-77
2021/12/31 10:40:49;;;;;;;3.27;1.80;;;12.50;99.90;;;;;;5016684;28;20167;-78
2021/12/31 10:43:21;;;;;;;5.63;1.97;;;12.50;99.90;;;;;;5013827;28;20197;-77
2021/12/31 10:46:03;;;;;;;3.00;2.03;;;12.50;99.90;;;;;;5016529;28;20208;-77
2021/12/31 10:48:47;;;;;;;3.20;1.90;;;12.50;99.90;;;;;;5015909;28;20173;-78
2021/12/31 10:51:15;;;;;;;3.23;1.90;;;12.60;99.90;;;;;;5016199;28;20230;-78
2021/12/31 10:53:49;;;;;;;5.43;2.13;;;12.50;99.90;;;;;;5016105;28;20243;-77
2021/12/31 10:56:15;;;;;;;4.70;2.40;;;12.60;99.90;;;;;;5016570;28;20153;-77
2021/12/31 10:58:47;;;;;;;4.53;2.30;;;12.60;99.90;;;;;;5016411;28;20173;-76
2021/12/31 11:01:15;;;;;;;3.30;2.30;;;12.60;99.90;;;;;;5016392;28;20157;-77
2021/12/31 11:03:41;;;;;;;3.40;1.77;;;12.60;99.90;;;;;;5014724;28;20181;-76
2021/12/31 11:06:12;;;;;;;3.20;2.20;;;12.60;99.90;;;;;;5015990;28;20184;-76
2021/12/31 11:08:47;;;;;;;2.40;1.70;;;12.60;99.90;;;;;;5015834;28;20219;-76
2021/12/31 11:11:14;;;;;;;3.40;2.00;;;12.50;99.90;;;;;;5015502;28;20153;-76
2021/12/31 11:13:40;;;;;;;2.33;1.80;;;12.50;99.90;;;;;;5015339;28;20209;-76
2021/12/31 11:16:05;;;;;;;2.27;1.73;;;12.50;99.90;;;;;;5014135;28;20177;-76
2021/12/31 11:18:31;;;;;;;3.73;1.70;;;12.50;99.90;;;;;;5015206;28;20169;-77
2021/12/31 11:21:04;;;;;;;3.30;1.43;;;12.50;99.90;;;;;;5015560;28;20550;-76
2021/12/31 11:23:31;;;;;;;2.47;1.60;;;12.60;99.90;;;;;;5015393;28;20515;-76
2021/12/31 11:26:04;;;;;;;5.37;2.10;;;12.60;99.90;;;;;;5013176;28;20207;-76
2021/12/31 11:28:35;;;;;;;2.87;1.60;;;12.60;99.90;;;;;;5013951;28;20655;-76
2021/12/31 11:31:18;;;;;;;1.90;1.57;;;12.70;99.90;;;;;;5015222;28;20173;-76
2021/12/31 11:34:08;;;;;;;2.50;1.37;;;12.70;99.90;;;;;;5014578;28;20578;-77
2021/12/31 11:36:52;;;;;;;2.70;1.30;;;12.70;99.90;;;;;;5003291;28;20243;-77
2021/12/31 11:39:30;;;;;;;4.13;1.50;;;12.80;99.90;;;;;;5014488;28;20172;-78
2021/12/31 11:42:00;;;;;;;2.00;1.53;;;12.80;99.90;;;;;;5015648;28;20157;-77
2021/12/31 11:44:27;;;;;;;1.70;1.50;;;12.90;99.90;;;;;;5013924;28;20239;-77
2021/12/31 11:47:13;;;;;;;2.73;1.70;;;12.90;99.90;;;;;;5013892;28;20246;-78
2021/12/31 11:49:39;;;;;;;4.20;1.53;;;13.00;99.90;;;;;;5014186;28;20184;-77
2021/12/31 11:52:12;;;;;;;1.70;1.60;;;13.00;99.90;;;;;;5013906;28;20182;-74
2021/12/31 11:54:39;;;;;;;3.23;1.43;;;13.00;99.90;;;;;;5013625;28;20212;-74
2021/12/31 11:57:09;;;;;;;2.60;1.50;;;13.10;99.90;;;;;;5014819;28;20173;-73
2021/12/31 11:59:37;;;;;;;1.87;1.50;;;13.10;99.90;;;;;;5014910;28;20188;-73
2021/12/31 12:02:09;;;;;;;1.83;1.40;;;13.30;99.90;;;;;;5014776;28;20177;-74
2021/12/31 12:04:37;;;;;;;4.67;1.33;;;13.30;99.90;;;;;;5013249;28;20327;-76
2021/12/31 12:07:09;;;;;;;3.00;1.17;;;13.40;99.90;;;;;;5013342;28;20601;-76
2021/12/31 12:09:37;;;;;;;2.90;1.37;;;13.40;99.90;;;;;;5014724;28;20240;-77
2021/12/31 12:12:04;;;;;;;1.47;1.17;;;13.50;99.90;;;;;;5014568;28;20191;-77
2021/12/31 12:14:36;;;;;;;3.00;1.57;;;13.50;99.90;;;;;;5014372;28;20274;-76
2021/12/31 12:17:02;;;;;;;2.00;1.50;;;13.40;99.90;;;;;;5014340;28;20169;-76
2021/12/31 12:20:03;;;;;;;1.43;1.20;;;13.50;99.90;;;;;;5014477;28;20165;-77
2021/12/31 12:22:35;;;;;;;1.97;1.27;;;13.50;99.90;;;;;;5012952;28;20177;-77
2021/12/31 12:25:07;;;;;;;2.90;1.27;;;13.70;99.90;;;;;;5013008;28;20193;-76
2021/12/31 12:27:33;;;;;;;2.70;1.50;;;13.70;99.90;;;;;;5014528;28;20216;-75
2021/12/31 12:30:11;;;;;;;3.00;1.40;;;13.80;99.90;;;;;;5015200;28;20585;-76
2021/12/31 12:32:50;;;;;;;5.73;1.80;;;13.80;99.90;;;;;;5013079;28;20176;-75
2021/12/31 12:35:17;;;;;;;2.53;1.20;;;13.80;99.90;;;;;;5014216;28;20193;-76
2021/12/31 12:38:03;;;;;;;5.70;1.80;;;13.80;99.90;;;;;;5012429;28;20256;-76
2021/12/31 12:40:53;;;;;;;3.47;1.53;;;13.80;99.90;;;;;;5014450;28;20236;-76
2021/12/31 12:43:22;;;;;;;1.73;1.57;;;13.80;99.90;;;;;;5012937;28;20228;-75
2021/12/31 12:45:51;;;;;;;2.07;1.43;;;13.80;99.90;;;;;;5012820;28;20196;-75
2021/12/31 12:48:28;;;;;;;3.30;1.67;;;13.70;99.90;;;;;;5014522;28;20168;-75
2021/12/31 12:50:53;;;;;;;2.10;1.43;;;13.70;99.90;;;;;;5014249;28;20240;-75
2021/12/31 12:53:23;;;;;;;1.90;1.47;;;13.70;99.90;;;;;;5012765;28;20709;-76
2021/12/31 12:55:49;;;;;;;3.30;1.30;;;13.70;99.90;;;;;;5014254;28;20694;-75
2021/12/31 12:58:23;;;;;;;1.37;1.17;;;13.70;99.90;;;;;;5014134;28;20227;-76